sensor_id;sensor_type;location;lat;lon;timestamp;pressure;altitude;pressure_sealevel;temperature;humidity
23281;BME280;11809;56.390;-3.266;2023-12-20T00:01:48;100361.72;;;16.00;55.02
23281;BME280;11809;56.390;-3.266;2023-12-20T00:04:19;100361.91;;;15.97;54.96
23281;BME280;11809;56.390;-3.266;2023-12-20T00:06:49;100342.84;;;15.92;55.30
23281;BME280;11809;56.390;-3.266;2023-12-20T00:09:20;100345.59;;;15.91;55.21
23281;BME280;11809;56.390;-3.266;2023-12-20T00:11:50;100335.19;;;15.88;55.20
23281;BME280;11809;56.390;-3.266;2023-12-20T00:14:23;100340.69;;;15.85;55.36
23281;BME280;11809;56.390;-3.266;2023-12-20T00:16:54;100342.69;;;15.81;55.40
23281;BME280;11809;56.390;-3.266;2023-12-20T00:19:24;100336.66;;;15.79;55.37
23281;BME280;11809;56.390;-3.266;2023-12-20T00:21:55;100346.59;;;15.75;55.56
23281;BME280;11809;56.390;-3.266;2023-12-20T00:24:27;100341.53;;;15.72;55.65
23281;BME280;11809;56.390;-3.266;2023-12-20T00:26:57;100337.28;;;15.70;55.82
23281;BME280;11809;56.390;-3.266;2023-12-20T00:29:30;100339.16;;;15.68;55.86
23281;BME280;11809;56.390;-3.266;2023-12-20T00:32:01;100339.34;;;15.65;55.81
23281;BME280;11809;56.390;-3.266;2023-12-20T00:34:32;100342.13;;;15.63;55.83
23281;BME280;11809;56.390;-3.266;2023-12-20T00:37:02;100338.81;;;15.60;55.81
23281;BME280;11809;56.390;-3.266;2023-12-20T00:39:33;100316.06;;;15.43;55.99
23281;BME280;11809;56.390;-3.266;2023-12-20T00:42:04;100338.19;;;15.56;56.07
23281;BME280;11809;56.390;-3.266;2023-12-20T00:44:38;100341.03;;;15.53;55.92
23281;BME280;11809;56.390;-3.266;2023-12-20T00:47:08;100349.06;;;15.52;56.03
23281;BME280;11809;56.390;-3.266;2023-12-20T00:49:39;100353.59;;;15.50;56.18
23281;BME280;11809;56.390;-3.266;2023-12-20T00:52:10;100366.97;;;15.48;56.32
23281;BME280;11809;56.390;-3.266;2023-12-20T00:54:40;100375.97;;;15.46;56.30
23281;BME280;11809;56.390;-3.266;2023-12-20T00:57:11;100383.94;;;15.44;56.31
23281;BME280;11809;56.390;-3.266;2023-12-20T00:59:45;100389.44;;;15.41;56.41
23281;BME280;11809;56.390;-3.266;2023-12-20T01:02:15;100364.25;;;15.22;56.36
23281;BME280;11809;56.390;-3.266;2023-12-20T01:04:46;100396.75;;;15.38;56.51
23281;BME280;11809;56.390;-3.266;2023-12-20T01:07:16;100384.56;;;15.35;56.46
23281;BME280;11809;56.390;-3.266;2023-12-20T01:09:47;100394.38;;;15.33;56.37
23281;BME280;11809;56.390;-3.266;2023-12-20T01:12:17;100392.78;;;15.31;56.54
23281;BME280;11809;56.390;-3.266;2023-12-20T01:14:50;100389.38;;;15.29;56.68
23281;BME280;11809;56.390;-3.266;2023-12-20T01:17:20;100390.53;;;15.25;56.78
23281;BME280;11809;56.390;-3.266;2023-12-20T01:19:51;100369.75;;;15.18;56.82
23281;BME280;11809;56.390;-3.266;2023-12-20T01:22:21;100387.22;;;15.21;56.78
23281;BME280;11809;56.390;-3.266;2023-12-20T01:24:52;100381.06;;;15.21;56.70
23281;BME280;11809;56.390;-3.266;2023-12-20T01:27:23;100395.34;;;15.18;56.75
23281;BME280;11809;56.390;-3.266;2023-12-20T01:29:56;100395.47;;;15.16;56.94
23281;BME280;11809;56.390;-3.266;2023-12-20T01:32:27;100397.34;;;15.14;56.99
23281;BME280;11809;56.390;-3.266;2023-12-20T01:34:57;100407.91;;;15.14;56.75
23281;BME280;11809;56.390;-3.266;2023-12-20T01:37:29;100373.81;;;14.96;56.83
23281;BME280;11809;56.390;-3.266;2023-12-20T01:40:00;100405.50;;;15.11;57.04
23281;BME280;11809;56.390;-3.266;2023-12-20T01:42:30;100407.34;;;15.09;57.20
23281;BME280;11809;56.390;-3.266;2023-12-20T01:45:04;100416.34;;;15.07;57.09
23281;BME280;11809;56.390;-3.266;2023-12-20T01:47:35;100413.81;;;15.05;57.22
23281;BME280;11809;56.390;-3.266;2023-12-20T01:50:07;100422.59;;;15.06;57.23
23281;BME280;11809;56.390;-3.266;2023-12-20T01:52:38;100429.88;;;15.02;57.40
23281;BME280;11809;56.390;-3.266;2023-12-20T01:55:08;100409.84;;;14.84;57.37
23281;BME280;11809;56.390;-3.266;2023-12-20T01:57:43;100437.06;;;15.00;57.23
23281;BME280;11809;56.390;-3.266;2023-12-20T02:00:18;100437.25;;;14.97;57.58
23281;BME280;11809;56.390;-3.266;2023-12-20T02:02:51;100457.56;;;14.97;57.43
23281;BME280;11809;56.390;-3.266;2023-12-20T02:05:23;100436.75;;;14.91;57.61
23281;BME280;11809;56.390;-3.266;2023-12-20T02:07:55;100445.38;;;14.94;57.69
23281;BME280;11809;56.390;-3.266;2023-12-20T02:10:26;100450.09;;;14.89;57.71
23281;BME280;11809;56.390;-3.266;2023-12-20T02:12:57;100445.56;;;14.91;57.78
23281;BME280;11809;56.390;-3.266;2023-12-20T02:15:30;100462.34;;;14.90;57.97
23281;BME280;11809;56.390;-3.266;2023-12-20T02:18:00;100436.09;;;14.73;57.80
23281;BME280;11809;56.390;-3.266;2023-12-20T02:20:31;100469.53;;;14.88;58.00
23281;BME280;11809;56.390;-3.266;2023-12-20T02:23:04;100470.50;;;14.87;58.13
23281;BME280;11809;56.390;-3.266;2023-12-20T02:25:34;100482.03;;;14.86;58.00
23281;BME280;11809;56.390;-3.266;2023-12-20T02:28:05;100482.88;;;14.87;58.06
23281;BME280;11809;56.390;-3.266;2023-12-20T02:30:36;100486.47;;;14.86;57.96
23281;BME280;11809;56.390;-3.266;2023-12-20T02:33:08;100481.16;;;14.86;58.25
23281;BME280;11809;56.390;-3.266;2023-12-20T02:35:41;100481.28;;;14.84;58.13
23281;BME280;11809;56.390;-3.266;2023-12-20T02:38:14;100487.50;;;14.83;58.08
23281;BME280;11809;56.390;-3.266;2023-12-20T02:40:45;100484.00;;;14.83;58.07
23281;BME280;11809;56.390;-3.266;2023-12-20T02:43:16;100488.53;;;14.81;58.35
23281;BME280;11809;56.390;-3.266;2023-12-20T02:45:46;100474.50;;;14.65;58.25
23281;BME280;11809;56.390;-3.266;2023-12-20T02:48:17;100455.16;;;14.64;58.30
23281;BME280;11809;56.390;-3.266;2023-12-20T02:50:47;100503.53;;;14.80;58.04
23281;BME280;11809;56.390;-3.266;2023-12-20T02:53:21;100482.78;;;14.74;58.10
23281;BME280;11809;56.390;-3.266;2023-12-20T02:55:52;100490.50;;;14.77;58.29
23281;BME280;11809;56.390;-3.266;2023-12-20T02:58:22;100494.09;;;14.76;58.29
23281;BME280;11809;56.390;-3.266;2023-12-20T03:00:53;100505.63;;;14.75;58.14
23281;BME280;11809;56.390;-3.266;2023-12-20T03:03:23;100489.53;;;14.64;58.34
23281;BME280;11809;56.390;-3.266;2023-12-20T03:05:54;100514.50;;;14.74;58.38
23281;BME280;11809;56.390;-3.266;2023-12-20T03:08:27;100496.25;;;14.55;58.42
23281;BME280;11809;56.390;-3.266;2023-12-20T03:10:59;100491.03;;;14.54;58.54
23281;BME280;11809;56.390;-3.266;2023-12-20T03:13:29;100519.13;;;14.71;58.20
23281;BME280;11809;56.390;-3.266;2023-12-20T03:16:00;100526.09;;;14.72;58.32
23281;BME280;11809;56.390;-3.266;2023-12-20T03:18:30;100504.81;;;14.59;58.52
23281;BME280;11809;56.390;-3.266;2023-12-20T03:21:01;100518.44;;;14.67;58.28
23281;BME280;11809;56.390;-3.266;2023-12-20T03:23:34;100518.44;;;14.67;58.14
23281;BME280;11809;56.390;-3.266;2023-12-20T03:26:07;100511.47;;;14.66;58.16
23281;BME280;11809;56.390;-3.266;2023-12-20T03:28:38;100507.13;;;14.65;58.30
23281;BME280;11809;56.390;-3.266;2023-12-20T03:31:09;100509.88;;;14.64;58.42
23281;BME280;11809;56.390;-3.266;2023-12-20T03:33:40;100476.53;;;14.45;58.42
23281;BME280;11809;56.390;-3.266;2023-12-20T03:36:11;100503.72;;;14.63;58.20
23281;BME280;11809;56.390;-3.266;2023-12-20T03:38:44;100509.00;;;14.63;58.63
23281;BME280;11809;56.390;-3.266;2023-12-20T03:41:14;100471.34;;;14.44;58.30
23281;BME280;11809;56.390;-3.266;2023-12-20T03:43:45;100499.53;;;14.59;58.36
23281;BME280;11809;56.390;-3.266;2023-12-20T03:46:15;100493.31;;;14.60;58.62
23281;BME280;11809;56.390;-3.266;2023-12-20T03:48:46;100484.81;;;14.55;58.47
23281;BME280;11809;56.390;-3.266;2023-12-20T03:51:16;100481.03;;;14.59;58.68
23281;BME280;11809;56.390;-3.266;2023-12-20T03:53:49;100480.25;;;14.57;58.64
23281;BME280;11809;56.390;-3.266;2023-12-20T03:56:20;100485.56;;;14.57;58.48
23281;BME280;11809;56.390;-3.266;2023-12-20T03:58:50;100484.81;;;14.55;58.60
23281;BME280;11809;56.390;-3.266;2023-12-20T04:01:21;100483.00;;;14.55;58.51
23281;BME280;11809;56.390;-3.266;2023-12-20T04:03:51;100481.31;;;14.54;58.70
23281;BME280;11809;56.390;-3.266;2023-12-20T04:06:22;100485.72;;;14.54;58.79
23281;BME280;11809;56.390;-3.266;2023-12-20T04:08:55;100454.16;;;14.37;58.71
23281;BME280;11809;56.390;-3.266;2023-12-20T04:11:25;100496.31;;;14.54;58.79
23281;BME280;11809;56.390;-3.266;2023-12-20T04:13:56;100484.03;;;14.53;58.60
23281;BME280;11809;56.390;-3.266;2023-12-20T04:16:26;100490.28;;;14.52;58.83
23281;BME280;11809;56.390;-3.266;2023-12-20T04:18:56;100495.56;;;14.52;58.72
23281;BME280;11809;56.390;-3.266;2023-12-20T04:21:27;100466.59;;;14.35;58.55
23281;BME280;11809;56.390;-3.266;2023-12-20T04:24:00;100478.03;;;14.35;58.59
23281;BME280;11809;56.390;-3.266;2023-12-20T04:26:30;100515.69;;;14.54;58.64
23281;BME280;11809;56.390;-3.266;2023-12-20T04:29:01;100521.03;;;14.53;58.82
23281;BME280;11809;56.390;-3.266;2023-12-20T04:31:31;100512.19;;;14.54;58.59
23281;BME280;11809;56.390;-3.266;2023-12-20T04:34:02;100520.28;;;14.51;58.81
23281;BME280;11809;56.390;-3.266;2023-12-20T04:36:32;100522.94;;;14.51;58.68
23281;BME280;11809;56.390;-3.266;2023-12-20T04:39:05;100500.91;;;14.50;58.66
23281;BME280;11809;56.390;-3.266;2023-12-20T04:41:36;100507.06;;;14.51;58.79
23281;BME280;11809;56.390;-3.266;2023-12-20T04:44:06;100486.94;;;14.48;58.71
23281;BME280;11809;56.390;-3.266;2023-12-20T04:46:36;100469.28;;;14.49;58.87
23281;BME280;11809;56.390;-3.266;2023-12-20T04:49:07;100473.72;;;14.48;58.78
23281;BME280;11809;56.390;-3.266;2023-12-20T04:51:37;100472.88;;;14.48;59.02
23281;BME280;11809;56.390;-3.266;2023-12-20T04:54:10;100468.72;;;14.44;58.97
23281;BME280;11809;56.390;-3.266;2023-12-20T04:56:41;100469.41;;;14.47;58.92
23281;BME280;11809;56.390;-3.266;2023-12-20T04:59:12;100462.38;;;14.46;58.95
23281;BME280;11809;56.390;-3.266;2023-12-20T05:01:42;100482.69;;;14.46;58.99
23281;BME280;11809;56.390;-3.266;2023-12-20T05:04:13;100461.53;;;14.46;59.15
23281;BME280;11809;56.390;-3.266;2023-12-20T05:06:43;100475.50;;;14.48;59.06
23281;BME280;11809;56.390;-3.266;2023-12-20T05:09:16;100457.19;;;14.29;58.86
23281;BME280;11809;56.390;-3.266;2023-12-20T05:11:47;100474.75;;;14.46;59.10
23281;BME280;11809;56.390;-3.266;2023-12-20T05:14:17;100486.28;;;14.45;59.14
23281;BME280;11809;56.390;-3.266;2023-12-20T05:16:48;100478.25;;;14.46;58.92
23281;BME280;11809;56.390;-3.266;2023-12-20T05:19:18;100483.72;;;14.43;58.81
23281;BME280;11809;56.390;-3.266;2023-12-20T05:21:49;100486.34;;;14.43;58.86
23281;BME280;11809;56.390;-3.266;2023-12-20T05:24:22;100449.66;;;14.23;58.80
23281;BME280;11809;56.390;-3.266;2023-12-20T05:26:52;100473.25;;;14.42;59.05
23281;BME280;11809;56.390;-3.266;2023-12-20T05:29:23;100478.59;;;14.40;59.04
23281;BME280;11809;56.390;-3.266;2023-12-20T05:31:54;100461.88;;;14.40;58.97
23281;BME280;11809;56.390;-3.266;2023-12-20T05:34:24;100425.84;;;14.23;59.09
23281;BME280;11809;56.390;-3.266;2023-12-20T05:36:55;100447.75;;;14.41;59.07
23281;BME280;11809;56.390;-3.266;2023-12-20T05:39:28;100459.25;;;14.40;59.03
23281;BME280;11809;56.390;-3.266;2023-12-20T05:41:58;100454.91;;;14.39;59.04
23281;BME280;11809;56.390;-3.266;2023-12-20T05:44:29;100450.47;;;14.39;58.96
23281;BME280;11809;56.390;-3.266;2023-12-20T05:46:59;100447.06;;;14.37;58.97
23281;BME280;11809;56.390;-3.266;2023-12-20T05:49:29;100452.34;;;14.37;58.82
23281;BME280;11809;56.390;-3.266;2023-12-20T05:52:00;100455.00;;;14.37;59.07
23281;BME280;11809;56.390;-3.266;2023-12-20T05:54:33;100444.53;;;14.36;59.15
23281;BME280;11809;56.390;-3.266;2023-12-20T05:57:04;100455.09;;;14.36;58.91
23281;BME280;11809;56.390;-3.266;2023-12-20T05:59:34;100460.56;;;14.33;58.99
23281;BME280;11809;56.390;-3.266;2023-12-20T06:02:05;100430.63;;;14.17;59.17
23281;BME280;11809;56.390;-3.266;2023-12-20T06:04:35;100471.97;;;14.33;58.87
23281;BME280;11809;56.390;-3.266;2023-12-20T06:07:06;100466.78;;;14.32;59.07
23281;BME280;11809;56.390;-3.266;2023-12-20T06:09:39;100464.13;;;14.32;59.25
23281;BME280;11809;56.390;-3.266;2023-12-20T06:12:10;100459.75;;;14.31;58.91
23281;BME280;11809;56.390;-3.266;2023-12-20T06:14:40;100462.47;;;14.29;59.08
23281;BME280;11809;56.390;-3.266;2023-12-20T06:17:11;100465.97;;;14.30;59.15
23281;BME280;11809;56.390;-3.266;2023-12-20T06:19:41;100461.66;;;14.29;58.99
23281;BME280;11809;56.390;-3.266;2023-12-20T06:22:15;100457.28;;;14.28;58.95
23281;BME280;11809;56.390;-3.266;2023-12-20T06:24:49;100464.47;;;14.26;59.17
23281;BME280;11809;56.390;-3.266;2023-12-20T06:27:19;100468.97;;;14.24;59.03
23281;BME280;11809;56.390;-3.266;2023-12-20T06:29:50;100474.25;;;14.24;59.29
23281;BME280;11809;56.390;-3.266;2023-12-20T06:32:20;100466.53;;;14.21;59.48
23281;BME280;11809;56.390;-3.266;2023-12-20T06:34:51;100471.81;;;14.21;59.67
23281;BME280;11809;56.390;-3.266;2023-12-20T06:37:22;100467.56;;;14.18;59.62
23281;BME280;11809;56.390;-3.266;2023-12-20T06:39:55;100477.44;;;14.15;59.20
23281;BME280;11809;56.390;-3.266;2023-12-20T06:42:26;100478.66;;;14.09;58.97
23281;BME280;11809;56.390;-3.266;2023-12-20T06:45:03;100469.97;;;14.07;59.17
23281;BME280;11809;56.390;-3.266;2023-12-20T06:47:34;100463.66;;;14.10;59.32
23281;BME280;11809;56.390;-3.266;2023-12-20T06:50:05;100458.38;;;14.10;59.86
23281;BME280;11809;56.390;-3.266;2023-12-20T06:52:36;100461.94;;;14.09;60.08
23281;BME280;11809;56.390;-3.266;2023-12-20T06:55:09;100461.94;;;14.09;60.12
23281;BME280;11809;56.390;-3.266;2023-12-20T06:57:40;100465.53;;;14.08;60.31
23281;BME280;11809;56.390;-3.266;2023-12-20T07:00:12;100460.31;;;14.06;60.46
23281;BME280;11809;56.390;-3.266;2023-12-20T07:02:44;100446.34;;;14.04;60.54
23281;BME280;11809;56.390;-3.266;2023-12-20T07:05:16;100440.03;;;14.07;60.73
23281;BME280;11809;56.390;-3.266;2023-12-20T07:07:47;100435.63;;;14.07;60.70
23281;BME280;11809;56.390;-3.266;2023-12-20T07:10:21;100409.41;;;13.88;60.74
23281;BME280;11809;56.390;-3.266;2023-12-20T07:12:52;100435.63;;;14.07;60.68
23281;BME280;11809;56.390;-3.266;2023-12-20T07:15:23;100434.81;;;14.05;60.72
23281;BME280;11809;56.390;-3.266;2023-12-20T07:17:54;100428.72;;;14.05;60.76
23281;BME280;11809;56.390;-3.266;2023-12-20T07:20:24;100423.44;;;14.05;60.68
23281;BME280;11809;56.390;-3.266;2023-12-20T07:22:55;100423.44;;;14.05;60.55
23281;BME280;11809;56.390;-3.266;2023-12-20T07:25:28;100431.19;;;14.08;60.55
23281;BME280;11809;56.390;-3.266;2023-12-20T07:28:04;100432.00;;;14.08;60.96
23281;BME280;11809;56.390;-3.266;2023-12-20T07:30:35;100433.34;;;13.85;55.31
23281;BME280;11809;56.390;-3.266;2023-12-20T07:33:05;100438.22;;;13.77;55.37
23281;BME280;11809;56.390;-3.266;2023-12-20T07:35:37;100429.53;;;13.75;56.14
23281;BME280;11809;56.390;-3.266;2023-12-20T07:38:07;100421.44;;;13.78;57.96
23281;BME280;11809;56.390;-3.266;2023-12-20T07:40:42;100398.53;;;13.63;58.55
23281;BME280;11809;56.390;-3.266;2023-12-20T07:43:12;100422.09;;;13.82;58.76
23281;BME280;11809;56.390;-3.266;2023-12-20T07:45:43;100410.66;;;13.81;58.73
23281;BME280;11809;56.390;-3.266;2023-12-20T07:48:14;100398.44;;;13.80;58.83
23281;BME280;11809;56.390;-3.266;2023-12-20T07:50:45;100397.47;;;13.81;59.22
23281;BME280;11809;56.390;-3.266;2023-12-20T07:53:15;100393.31;;;13.77;59.38
23281;BME280;11809;56.390;-3.266;2023-12-20T07:55:48;100390.84;;;13.74;59.50
23281;BME280;11809;56.390;-3.266;2023-12-20T07:58:20;100347.88;;;13.57;59.76
23281;BME280;11809;56.390;-3.266;2023-12-20T08:01:06;100385.56;;;13.74;60.01
23281;BME280;11809;56.390;-3.266;2023-12-20T08:03:37;100388.19;;;13.74;60.26
23281;BME280;11809;56.390;-3.266;2023-12-20T08:06:08;100382.75;;;13.77;60.42
23281;BME280;11809;56.390;-3.266;2023-12-20T08:08:38;100375.75;;;13.76;60.68
23281;BME280;11809;56.390;-3.266;2023-12-20T08:11:13;100375.69;;;13.78;60.49
23281;BME280;11809;56.390;-3.266;2023-12-20T08:13:44;100365.19;;;13.76;60.72
23281;BME280;11809;56.390;-3.266;2023-12-20T08:16:15;100371.91;;;13.82;60.82
23281;BME280;11809;56.390;-3.266;2023-12-20T08:18:45;100358.81;;;13.80;60.68
23281;BME280;11809;56.390;-3.266;2023-12-20T08:21:16;100357.03;;;13.81;60.68
23281;BME280;11809;56.390;-3.266;2023-12-20T08:23:47;100359.56;;;13.82;60.72
23281;BME280;11809;56.390;-3.266;2023-12-20T08:26:21;100356.75;;;13.85;61.09
23281;BME280;11809;56.390;-3.266;2023-12-20T08:28:52;100348.72;;;13.87;60.89
23281;BME280;11809;56.390;-3.266;2023-12-20T08:31:25;100344.28;;;13.87;61.32
23281;BME280;11809;56.390;-3.266;2023-12-20T08:33:56;100342.50;;;13.88;61.03
23281;BME280;11809;56.390;-3.266;2023-12-20T08:36:27;100335.44;;;13.88;60.87
23281;BME280;11809;56.390;-3.266;2023-12-20T08:38:57;100319.66;;;13.87;60.76
23281;BME280;11809;56.390;-3.266;2023-12-20T08:41:30;100316.09;;;13.88;60.86
23281;BME280;11809;56.390;-3.266;2023-12-20T08:44:01;100310.81;;;13.88;60.75
23281;BME280;11809;56.390;-3.266;2023-12-20T08:46:32;100309.03;;;13.88;61.10
23281;BME280;11809;56.390;-3.266;2023-12-20T08:49:02;100301.94;;;13.89;60.83
23281;BME280;11809;56.390;-3.266;2023-12-20T08:51:33;100298.47;;;13.88;60.83
23281;BME280;11809;56.390;-3.266;2023-12-20T08:54:07;100285.25;;;13.88;60.98
23281;BME280;11809;56.390;-3.266;2023-12-20T08:56:40;100284.28;;;13.89;61.02
23281;BME280;11809;56.390;-3.266;2023-12-20T08:59:11;100286.84;;;13.91;61.15
23281;BME280;11809;56.390;-3.266;2023-12-20T09:01:41;100280.72;;;13.90;60.84
23281;BME280;11809;56.390;-3.266;2023-12-20T09:04:12;100267.50;;;13.90;60.90
23281;BME280;11809;56.390;-3.266;2023-12-20T09:06:42;100270.03;;;13.92;61.03
23281;BME280;11809;56.390;-3.266;2023-12-20T09:09:13;100260.34;;;13.92;60.93
23281;BME280;11809;56.390;-3.266;2023-12-20T09:11:46;100248.44;;;13.85;60.84
23281;BME280;11809;56.390;-3.266;2023-12-20T09:14:18;100260.16;;;13.95;61.62
23281;BME280;11809;56.390;-3.266;2023-12-20T09:16:49;100254.69;;;13.98;61.59
23281;BME280;11809;56.390;-3.266;2023-12-20T09:19:23;100239.50;;;14.02;61.33
23281;BME280;11809;56.390;-3.266;2023-12-20T09:21:53;100226.53;;;13.69;57.50
23281;BME280;11809;56.390;-3.266;2023-12-20T09:24:24;100218.09;;;13.49;56.80
23281;BME280;11809;56.390;-3.266;2023-12-20T09:26:57;100202.72;;;13.41;57.25
23281;BME280;11809;56.390;-3.266;2023-12-20T09:29:28;100194.06;;;13.53;58.50
23281;BME280;11809;56.390;-3.266;2023-12-20T09:31:58;100192.84;;;13.59;58.82
23281;BME280;11809;56.390;-3.266;2023-12-20T09:34:29;100184.63;;;13.63;59.49
23281;BME280;11809;56.390;-3.266;2023-12-20T09:37:00;100179.19;;;13.66;59.62
23281;BME280;11809;56.390;-3.266;2023-12-20T09:39:31;100177.28;;;13.68;59.89
23281;BME280;11809;56.390;-3.266;2023-12-20T09:42:05;100167.59;;;13.69;60.23
23281;BME280;11809;56.390;-3.266;2023-12-20T09:44:36;100177.09;;;13.71;60.40
23281;BME280;11809;56.390;-3.266;2023-12-20T09:47:14;100166.53;;;13.71;60.73
23281;BME280;11809;56.390;-3.266;2023-12-20T09:49:46;100153.25;;;13.73;60.58
23281;BME280;11809;56.390;-3.266;2023-12-20T09:52:18;100130.31;;;13.73;60.75
23281;BME280;11809;56.390;-3.266;2023-12-20T09:54:50;100115.44;;;13.72;60.90
23281;BME280;11809;56.390;-3.266;2023-12-20T09:57:25;100107.34;;;13.75;61.17
23281;BME280;11809;56.390;-3.266;2023-12-20T09:59:56;100092.25;;;13.77;61.19
23281;BME280;11809;56.390;-3.266;2023-12-20T10:02:27;100059.81;;;13.61;61.71
23281;BME280;11809;56.390;-3.266;2023-12-20T10:05:00;100055.56;;;13.59;61.45
23281;BME280;11809;56.390;-3.266;2023-12-20T10:07:31;100104.50;;;13.78;61.71
23281;BME280;11809;56.390;-3.266;2023-12-20T10:10:02;100107.59;;;13.71;59.96
23281;BME280;11809;56.390;-3.266;2023-12-20T10:12:36;100091.97;;;13.54;58.30
23281;BME280;11809;56.390;-3.266;2023-12-20T10:15:08;100068.09;;;13.41;58.65
23281;BME280;11809;56.390;-3.266;2023-12-20T10:17:39;100057.94;;;13.49;59.50
23281;BME280;11809;56.390;-3.266;2023-12-20T10:20:11;100047.06;;;13.54;60.08
23281;BME280;11809;56.390;-3.266;2023-12-20T10:22:41;100044.25;;;13.57;60.07
23281;BME280;11809;56.390;-3.266;2023-12-20T10:25:12;100046.72;;;13.60;60.53
23281;BME280;11809;56.390;-3.266;2023-12-20T10:27:45;100048.38;;;13.61;60.79
23281;BME280;11809;56.390;-3.266;2023-12-20T10:30:16;100030.19;;;13.56;60.94
23281;BME280;11809;56.390;-3.266;2023-12-20T10:32:47;100041.22;;;13.63;60.96
23281;BME280;11809;56.390;-3.266;2023-12-20T10:35:19;100040.16;;;13.65;61.87
23281;BME280;11809;56.390;-3.266;2023-12-20T10:37:51;100040.09;;;13.53;58.94
23281;BME280;11809;56.390;-3.266;2023-12-20T10:40:27;100020.28;;;13.31;59.02
23281;BME280;11809;56.390;-3.266;2023-12-20T10:43:03;100037.75;;;13.48;59.43
23281;BME280;11809;56.390;-3.266;2023-12-20T10:45:34;100039.34;;;13.51;60.09
23281;BME280;11809;56.390;-3.266;2023-12-20T10:48:05;100035.78;;;13.52;60.35
23281;BME280;11809;56.390;-3.266;2023-12-20T10:50:36;100036.59;;;13.52;60.58
23281;BME280;11809;56.390;-3.266;2023-12-20T10:53:08;100026.22;;;13.63;62.67
23281;BME280;11809;56.390;-3.266;2023-12-20T10:55:39;100018.97;;;13.67;61.46
23281;BME280;11809;56.390;-3.266;2023-12-20T10:58:14;100003.19;;;13.65;61.67
23281;BME280;11809;56.390;-3.266;2023-12-20T11:00:45;99998.78;;;13.66;61.48
23281;BME280;11809;56.390;-3.266;2023-12-20T11:03:18;99997.91;;;13.65;61.74
23281;BME280;11809;56.390;-3.266;2023-12-20T11:05:56;99985.38;;;13.69;61.85
23281;BME280;11809;56.390;-3.266;2023-12-20T11:08:33;99967.00;;;13.67;61.82
23281;BME280;11809;56.390;-3.266;2023-12-20T11:11:11;99949.47;;;13.66;61.98
23281;BME280;11809;56.390;-3.266;2023-12-20T11:13:57;99915.28;;;13.51;61.70
23281;BME280;11809;56.390;-3.266;2023-12-20T11:16:31;99919.41;;;13.55;61.76
23281;BME280;11809;56.390;-3.266;2023-12-20T11:19:17;99931.53;;;13.71;62.19
23281;BME280;11809;56.390;-3.266;2023-12-20T11:21:48;99906.09;;;13.70;62.08
23281;BME280;11809;56.390;-3.266;2023-12-20T11:24:22;99906.84;;;13.72;61.89
23281;BME280;11809;56.390;-3.266;2023-12-20T11:26:55;99887.59;;;13.70;62.01
23281;BME280;11809;56.390;-3.266;2023-12-20T11:29:33;99873.44;;;13.71;61.79
23281;BME280;11809;56.390;-3.266;2023-12-20T11:32:28;99865.31;;;13.74;62.27
23281;BME280;11809;56.390;-3.266;2023-12-20T11:34:59;99853.63;;;13.78;62.00
23281;BME280;11809;56.390;-3.266;2023-12-20T11:37:35;99846.63;;;13.77;61.81
23281;BME280;11809;56.390;-3.266;2023-12-20T11:40:12;99845.47;;;13.81;61.88
23281;BME280;11809;56.390;-3.266;2023-12-20T11:42:45;99835.47;;;13.86;62.21
23281;BME280;11809;56.390;-3.266;2023-12-20T11:45:21;99841.38;;;13.90;62.79
23281;BME280;11809;56.390;-3.266;2023-12-20T11:47:57;99836.44;;;13.98;63.16
23281;BME280;11809;56.390;-3.266;2023-12-20T11:50:28;99831.81;;;14.02;63.05
23281;BME280;11809;56.390;-3.266;2023-12-20T11:52:59;99821.84;;;14.05;63.29
23281;BME280;11809;56.390;-3.266;2023-12-20T11:55:30;99824.22;;;14.10;63.81
23281;BME280;11809;56.390;-3.266;2023-12-20T11:58:04;99817.03;;;14.12;63.21
23281;BME280;11809;56.390;-3.266;2023-12-20T12:00:39;99800.31;;;13.98;62.61
23281;BME280;11809;56.390;-3.266;2023-12-20T12:03:10;99817.03;;;14.12;62.33
23281;BME280;11809;56.390;-3.266;2023-12-20T12:05:40;99813.44;;;14.13;62.19
23281;BME280;11809;56.390;-3.266;2023-12-20T12:08:11;99828.03;;;14.18;63.07
23281;BME280;11809;56.390;-3.266;2023-12-20T12:10:42;99802.22;;;14.22;64.38
23281;BME280;11809;56.390;-3.266;2023-12-20T12:13:13;99808.16;;;14.25;62.69
23281;BME280;11809;56.390;-3.266;2023-12-20T12:15:48;99802.22;;;14.22;61.54
23281;BME280;11809;56.390;-3.266;2023-12-20T12:18:19;99790.81;;;14.21;62.40
23281;BME280;11809;56.390;-3.266;2023-12-20T12:20:49;99781.09;;;14.22;61.81
23281;BME280;11809;56.390;-3.266;2023-12-20T12:23:22;99776.44;;;14.25;63.03
23281;BME280;11809;56.390;-3.266;2023-12-20T12:25:55;99778.97;;;14.27;61.78
23281;BME280;11809;56.390;-3.266;2023-12-20T12:28:26;99771.81;;;14.29;62.03
23281;BME280;11809;56.390;-3.266;2023-12-20T12:31:03;99764.44;;;14.34;63.03
23281;BME280;11809;56.390;-3.266;2023-12-20T12:33:34;99770.44;;;14.36;62.12
23281;BME280;11809;56.390;-3.266;2023-12-20T12:36:05;99770.44;;;14.36;62.06
23281;BME280;11809;56.390;-3.266;2023-12-20T12:38:35;99771.31;;;14.36;62.32
23281;BME280;11809;56.390;-3.266;2023-12-20T12:41:06;99774.78;;;14.37;62.00
23281;BME280;11809;56.390;-3.266;2023-12-20T12:43:38;99779.84;;;14.40;63.78
23281;BME280;11809;56.390;-3.266;2023-12-20T12:46:11;99764.75;;;14.42;62.84
23281;BME280;11809;56.390;-3.266;2023-12-20T12:48:42;99755.63;;;14.46;63.18
23281;BME280;11809;56.390;-3.266;2023-12-20T12:51:13;99763.47;;;14.47;62.78
23281;BME280;11809;56.390;-3.266;2023-12-20T12:53:44;99760.16;;;14.56;64.06
23281;BME280;11809;56.390;-3.266;2023-12-20T12:56:15;99759.63;;;14.64;65.20
23281;BME280;11809;56.390;-3.266;2023-12-20T12:58:45;99762.78;;;14.69;65.41
23281;BME280;11809;56.390;-3.266;2023-12-20T13:01:18;99766.69;;;14.76;65.67
23281;BME280;11809;56.390;-3.266;2023-12-20T13:03:49;99766.88;;;14.86;65.76